sensor_id;sensor_type;location;lat;lon;timestamp;P1;durP1;ratioP1;P2;durP2;ratioP2
57848;SDS011;68645;44.762;21.516;2023-07-29T00:01:07;34.88;;;22.88;;
57848;SDS011;68645;44.762;21.516;2023-07-29T00:03:33;36.63;;;22.40;;
57848;SDS011;68645;44.762;21.516;2023-07-29T00:05:59;35.92;;;21.98;;
57848;SDS011;68645;44.762;21.516;2023-07-29T00:08:25;37.13;;;21.58;;
57848;SDS011;68645;44.762;21.516;2023-07-29T00:10:51;33.33;;;21.50;;
57848;SDS011;68645;44.762;21.516;2023-07-29T00:13:18;33.38;;;21.15;;
57848;SDS011;68645;44.762;21.516;2023-07-29T00:15:44;34.88;;;20.55;;
57848;SDS011;68645;44.762;21.516;2023-07-29T00:18:10;31.60;;;17.98;;
57848;SDS011;68645;44.762;21.516;2023-07-29T00:20:36;28.02;;;18.05;;
57848;SDS011;68645;44.762;21.516;2023-07-29T00:23:02;29.42;;;18.23;;
57848;SDS011;68645;44.762;21.516;2023-07-29T00:25:28;29.38;;;17.25;;
57848;SDS011;68645;44.762;21.516;2023-07-29T00:27:55;23.75;;;16.95;;
57848;SDS011;68645;44.762;21.516;2023-07-29T00:30:22;27.67;;;17.38;;
57848;SDS011;68645;44.762;21.516;2023-07-29T00:32:48;27.45;;;17.17;;
57848;SDS011;68645;44.762;21.516;2023-07-29T00:35:14;21.63;;;15.82;;
57848;SDS011;68645;44.762;21.516;2023-07-29T00:37:40;23.05;;;16.42;;
57848;SDS011;68645;44.762;21.516;2023-07-29T00:40:09;19.92;;;15.20;;
57848;SDS011;68645;44.762;21.516;2023-07-29T00:42:35;24.00;;;14.45;;
57848;SDS011;68645;44.762;21.516;2023-07-29T00:45:01;18.63;;;13.57;;
57848;SDS011;68645;44.762;21.516;2023-07-29T00:47:28;18.95;;;12.50;;
57848;SDS011;68645;44.762;21.516;2023-07-29T00:49:54;18.23;;;12.68;;
57848;SDS011;68645;44.762;21.516;2023-07-29T00:52:20;21.05;;;14.38;;
57848;SDS011;68645;44.762;21.516;2023-07-29T00:54:46;15.77;;;11.75;;
57848;SDS011;68645;44.762;21.516;2023-07-29T00:57:12;16.83;;;12.25;;
57848;SDS011;68645;44.762;21.516;2023-07-29T00:59:40;16.30;;;11.00;;
57848;SDS011;68645;44.762;21.516;2023-07-29T01:02:06;13.43;;;11.60;;
57848;SDS011;68645;44.762;21.516;2023-07-29T01:04:33;12.02;;;10.10;;
57848;SDS011;68645;44.762;21.516;2023-07-29T01:07:17;15.00;;;11.10;;
57848;SDS011;68645;44.762;21.516;2023-07-29T01:10:07;12.82;;;10.07;;
57848;SDS011;68645;44.762;21.516;2023-07-29T01:15:16;11.60;;;9.32;;
57848;SDS011;68645;44.762;21.516;2023-07-29T01:17:45;18.30;;;11.02;;
57848;SDS011;68645;44.762;21.516;2023-07-29T01:20:15;17.45;;;11.15;;
57848;SDS011;68645;44.762;21.516;2023-07-29T01:22:42;14.68;;;10.20;;
57848;SDS011;68645;44.762;21.516;2023-07-29T01:25:08;12.27;;;10.23;;
57848;SDS011;68645;44.762;21.516;2023-07-29T01:27:34;13.38;;;10.30;;
57848;SDS011;68645;44.762;21.516;2023-07-29T01:30:01;13.70;;;9.98;;
57848;SDS011;68645;44.762;21.516;2023-07-29T01:32:31;15.77;;;10.73;;
57848;SDS011;68645;44.762;21.516;2023-07-29T01:37:45;16.85;;;11.30;;
57848;SDS011;68645;44.762;21.516;2023-07-29T01:40:14;21.15;;;12.85;;
57848;SDS011;68645;44.762;21.516;2023-07-29T01:42:40;22.98;;;15.02;;
57848;SDS011;68645;44.762;21.516;2023-07-29T01:45:07;32.47;;;18.60;;
57848;SDS011;68645;44.762;21.516;2023-07-29T01:47:33;31.00;;;17.85;;
57848;SDS011;68645;44.762;21.516;2023-07-29T01:50:00;28.70;;;16.40;;
57848;SDS011;68645;44.762;21.516;2023-07-29T01:52:26;26.65;;;14.73;;
57848;SDS011;68645;44.762;21.516;2023-07-29T01:54:52;21.15;;;13.13;;
57848;SDS011;68645;44.762;21.516;2023-07-29T01:57:18;18.23;;;11.68;;
57848;SDS011;68645;44.762;21.516;2023-07-29T01:59:44;23.48;;;11.55;;
57848;SDS011;68645;44.762;21.516;2023-07-29T02:02:10;17.77;;;10.55;;
57848;SDS011;68645;44.762;21.516;2023-07-29T02:04:37;14.93;;;10.25;;
57848;SDS011;68645;44.762;21.516;2023-07-29T02:07:03;18.33;;;12.25;;
57848;SDS011;68645;44.762;21.516;2023-07-29T02:09:29;17.60;;;13.30;;
57848;SDS011;68645;44.762;21.516;2023-07-29T02:11:56;14.18;;;11.15;;
57848;SDS011;68645;44.762;21.516;2023-07-29T02:14:23;10.82;;;8.68;;
57848;SDS011;68645;44.762;21.516;2023-07-29T02:16:49;12.68;;;7.68;;
57848;SDS011;68645;44.762;21.516;2023-07-29T02:19:15;12.70;;;7.38;;
57848;SDS011;68645;44.762;21.516;2023-07-29T02:21:41;12.57;;;7.13;;
57848;SDS011;68645;44.762;21.516;2023-07-29T02:24:07;10.18;;;6.85;;
57848;SDS011;68645;44.762;21.516;2023-07-29T02:26:33;8.73;;;6.95;;
57848;SDS011;68645;44.762;21.516;2023-07-29T02:29:00;9.05;;;6.85;;
57848;SDS011;68645;44.762;21.516;2023-07-29T02:31:26;7.68;;;6.43;;
57848;SDS011;68645;44.762;21.516;2023-07-29T02:33:52;13.63;;;6.53;;
57848;SDS011;68645;44.762;21.516;2023-07-29T02:36:18;11.38;;;6.78;;
57848;SDS011;68645;44.762;21.516;2023-07-29T02:38:45;13.43;;;6.90;;
57848;SDS011;68645;44.762;21.516;2023-07-29T02:41:11;11.13;;;6.60;;
57848;SDS011;68645;44.762;21.516;2023-07-29T02:43:38;9.52;;;6.50;;
57848;SDS011;68645;44.762;21.516;2023-07-29T02:46:06;8.60;;;6.60;;
57848;SDS011;68645;44.762;21.516;2023-07-29T02:48:32;12.90;;;7.18;;
57848;SDS011;68645;44.762;21.516;2023-07-29T02:50:58;10.15;;;6.68;;
57848;SDS011;68645;44.762;21.516;2023-07-29T02:53:24;9.55;;;6.70;;
57848;SDS011;68645;44.762;21.516;2023-07-29T02:55:50;9.02;;;6.85;;
57848;SDS011;68645;44.762;21.516;2023-07-29T02:58:16;9.23;;;6.25;;
57848;SDS011;68645;44.762;21.516;2023-07-29T03:00:43;10.77;;;7.13;;
57848;SDS011;68645;44.762;21.516;2023-07-29T03:03:09;10.35;;;7.30;;
57848;SDS011;68645;44.762;21.516;2023-07-29T03:05:35;12.32;;;9.55;;
57848;SDS011;68645;44.762;21.516;2023-07-29T03:08:02;14.07;;;12.55;;
57848;SDS011;68645;44.762;21.516;2023-07-29T03:10:28;14.95;;;12.10;;
57848;SDS011;68645;44.762;21.516;2023-07-29T03:12:55;14.55;;;12.13;;
57848;SDS011;68645;44.762;21.516;2023-07-29T03:15:24;17.95;;;12.13;;
57848;SDS011;68645;44.762;21.516;2023-07-29T03:17:51;12.38;;;10.00;;
57848;SDS011;68645;44.762;21.516;2023-07-29T03:20:17;15.40;;;11.63;;
57848;SDS011;68645;44.762;21.516;2023-07-29T03:22:43;16.08;;;10.75;;
57848;SDS011;68645;44.762;21.516;2023-07-29T03:25:10;20.40;;;16.55;;
57848;SDS011;68645;44.762;21.516;2023-07-29T03:27:36;21.05;;;18.95;;
57848;SDS011;68645;44.762;21.516;2023-07-29T03:30:05;19.33;;;17.48;;
57848;SDS011;68645;44.762;21.516;2023-07-29T03:32:32;18.98;;;16.85;;
57848;SDS011;68645;44.762;21.516;2023-07-29T03:34:58;21.35;;;16.95;;
57848;SDS011;68645;44.762;21.516;2023-07-29T03:37:24;20.73;;;18.60;;
57848;SDS011;68645;44.762;21.516;2023-07-29T03:39:50;11.85;;;10.57;;
57848;SDS011;68645;44.762;21.516;2023-07-29T03:42:20;9.93;;;6.72;;
57848;SDS011;68645;44.762;21.516;2023-07-29T03:44:46;7.97;;;6.38;;
57848;SDS011;68645;44.762;21.516;2023-07-29T03:47:12;8.80;;;6.20;;
57848;SDS011;68645;44.762;21.516;2023-07-29T03:49:38;10.68;;;5.82;;
57848;SDS011;68645;44.762;21.516;2023-07-29T03:52:04;10.07;;;6.35;;
57848;SDS011;68645;44.762;21.516;2023-07-29T03:54:30;10.25;;;6.22;;
57848;SDS011;68645;44.762;21.516;2023-07-29T03:56:57;7.95;;;6.00;;
57848;SDS011;68645;44.762;21.516;2023-07-29T03:59:23;9.63;;;5.93;;
57848;SDS011;68645;44.762;21.516;2023-07-29T04:01:49;9.52;;;6.00;;
57848;SDS011;68645;44.762;21.516;2023-07-29T04:04:15;11.30;;;6.18;;
57848;SDS011;68645;44.762;21.516;2023-07-29T04:06:41;8.98;;;7.30;;
57848;SDS011;68645;44.762;21.516;2023-07-29T04:09:07;9.90;;;7.97;;
57848;SDS011;68645;44.762;21.516;2023-07-29T04:11:34;12.73;;;7.28;;
57848;SDS011;68645;44.762;21.516;2023-07-29T04:14:00;13.10;;;11.35;;
57848;SDS011;68645;44.762;21.516;2023-07-29T04:16:26;25.80;;;23.27;;
57848;SDS011;68645;44.762;21.516;2023-07-29T04:18:53;35.92;;;26.85;;
57848;SDS011;68645;44.762;21.516;2023-07-29T04:21:20;34.40;;;30.88;;
57848;SDS011;68645;44.762;21.516;2023-07-29T04:23:46;28.33;;;25.00;;
57848;SDS011;68645;44.762;21.516;2023-07-29T04:26:12;31.88;;;24.45;;
57848;SDS011;68645;44.762;21.516;2023-07-29T04:28:38;20.90;;;17.25;;
57848;SDS011;68645;44.762;21.516;2023-07-29T04:31:04;20.75;;;16.52;;
57848;SDS011;68645;44.762;21.516;2023-07-29T04:33:31;72.25;;;65.40;;
57848;SDS011;68645;44.762;21.516;2023-07-29T04:35:57;78.63;;;71.03;;
57848;SDS011;68645;44.762;21.516;2023-07-29T04:38:27;100.68;;;90.85;;
57848;SDS011;68645;44.762;21.516;2023-07-29T04:40:53;82.10;;;74.50;;
57848;SDS011;68645;44.762;21.516;2023-07-29T04:43:19;63.45;;;57.47;;
57848;SDS011;68645;44.762;21.516;2023-07-29T04:45:45;46.30;;;41.90;;
57848;SDS011;68645;44.762;21.516;2023-07-29T04:48:11;34.47;;;31.20;;
57848;SDS011;68645;44.762;21.516;2023-07-29T04:50:38;14.02;;;11.88;;
57848;SDS011;68645;44.762;21.516;2023-07-29T04:53:04;13.68;;;10.15;;
57848;SDS011;68645;44.762;21.516;2023-07-29T04:55:30;19.88;;;10.65;;
57848;SDS011;68645;44.762;21.516;2023-07-29T04:57:56;12.95;;;9.82;;
57848;SDS011;68645;44.762;21.516;2023-07-29T05:00:22;14.27;;;10.43;;
57848;SDS011;68645;44.762;21.516;2023-07-29T05:02:48;14.95;;;10.50;;
57848;SDS011;68645;44.762;21.516;2023-07-29T05:05:14;13.75;;;10.60;;
57848;SDS011;68645;44.762;21.516;2023-07-29T05:07:41;13.00;;;10.63;;
57848;SDS011;68645;44.762;21.516;2023-07-29T05:10:07;15.90;;;12.18;;
57848;SDS011;68645;44.762;21.516;2023-07-29T05:12:33;14.43;;;11.07;;
57848;SDS011;68645;44.762;21.516;2023-07-29T05:14:59;14.55;;;11.40;;
57848;SDS011;68645;44.762;21.516;2023-07-29T05:17:25;15.90;;;12.98;;
57848;SDS011;68645;44.762;21.516;2023-07-29T05:19:51;21.10;;;18.90;;
57848;SDS011;68645;44.762;21.516;2023-07-29T05:22:18;37.97;;;34.33;;
57848;SDS011;68645;44.762;21.516;2023-07-29T05:24:44;34.25;;;27.65;;
57848;SDS011;68645;44.762;21.516;2023-07-29T05:27:10;35.90;;;20.42;;
57848;SDS011;68645;44.762;21.516;2023-07-29T05:29:36;29.70;;;17.63;;
57848;SDS011;68645;44.762;21.516;2023-07-29T05:32:02;12.77;;;10.10;;
57848;SDS011;68645;44.762;21.516;2023-07-29T05:34:29;11.40;;;7.82;;
57848;SDS011;68645;44.762;21.516;2023-07-29T05:36:55;12.80;;;7.30;;
57848;SDS011;68645;44.762;21.516;2023-07-29T05:39:21;9.75;;;6.90;;
57848;SDS011;68645;44.762;21.516;2023-07-29T05:41:47;12.52;;;7.03;;
57848;SDS011;68645;44.762;21.516;2023-07-29T05:44:13;11.43;;;6.15;;
57848;SDS011;68645;44.762;21.516;2023-07-29T05:46:39;7.95;;;6.20;;
57848;SDS011;68645;44.762;21.516;2023-07-29T05:49:05;8.63;;;7.40;;
57848;SDS011;68645;44.762;21.516;2023-07-29T05:51:32;11.05;;;6.03;;
57848;SDS011;68645;44.762;21.516;2023-07-29T05:53:58;9.45;;;6.20;;
57848;SDS011;68645;44.762;21.516;2023-07-29T05:56:24;10.45;;;9.30;;
57848;SDS011;68645;44.762;21.516;2023-07-29T05:58:51;9.35;;;8.43;;
57848;SDS011;68645;44.762;21.516;2023-07-29T06:01:17;17.55;;;11.60;;
57848;SDS011;68645;44.762;21.516;2023-07-29T06:03:46;21.60;;;19.40;;
57848;SDS011;68645;44.762;21.516;2023-07-29T06:06:12;15.70;;;13.50;;
57848;SDS011;68645;44.762;21.516;2023-07-29T06:08:39;14.50;;;12.63;;
57848;SDS011;68645;44.762;21.516;2023-07-29T06:11:05;19.00;;;17.25;;
57848;SDS011;68645;44.762;21.516;2023-07-29T06:13:34;11.85;;;7.75;;
57848;SDS011;68645;44.762;21.516;2023-07-29T06:16:00;9.70;;;7.22;;
57848;SDS011;68645;44.762;21.516;2023-07-29T06:18:26;8.63;;;6.82;;
57848;SDS011;68645;44.762;21.516;2023-07-29T06:20:52;8.75;;;5.70;;
57848;SDS011;68645;44.762;21.516;2023-07-29T06:23:18;8.45;;;6.10;;
57848;SDS011;68645;44.762;21.516;2023-07-29T06:25:44;8.90;;;5.90;;
57848;SDS011;68645;44.762;21.516;2023-07-29T06:28:11;8.52;;;6.60;;
57848;SDS011;68645;44.762;21.516;2023-07-29T06:30:37;8.65;;;6.22;;
57848;SDS011;68645;44.762;21.516;2023-07-29T06:33:03;14.48;;;10.43;;
57848;SDS011;68645;44.762;21.516;2023-07-29T06:35:29;22.55;;;17.23;;
57848;SDS011;68645;44.762;21.516;2023-07-29T06:37:55;25.80;;;19.92;;
57848;SDS011;68645;44.762;21.516;2023-07-29T06:40:21;15.18;;;12.07;;
57848;SDS011;68645;44.762;21.516;2023-07-29T06:42:47;16.40;;;10.93;;
57848;SDS011;68645;44.762;21.516;2023-07-29T06:45:13;17.88;;;13.35;;
57848;SDS011;68645;44.762;21.516;2023-07-29T06:47:40;17.38;;;14.65;;
57848;SDS011;68645;44.762;21.516;2023-07-29T06:50:06;10.10;;;8.05;;
57848;SDS011;68645;44.762;21.516;2023-07-29T06:52:33;21.40;;;19.05;;
57848;SDS011;68645;44.762;21.516;2023-07-29T06:54:59;17.52;;;15.32;;
57848;SDS011;68645;44.762;21.516;2023-07-29T06:57:25;14.55;;;8.63;;
57848;SDS011;68645;44.762;21.516;2023-07-29T06:59:51;90.00;;;66.30;;
57848;SDS011;68645;44.762;21.516;2023-07-29T07:02:17;46.22;;;36.15;;
57848;SDS011;68645;44.762;21.516;2023-07-29T07:04:43;14.05;;;9.88;;
57848;SDS011;68645;44.762;21.516;2023-07-29T07:07:10;20.70;;;17.02;;
57848;SDS011;68645;44.762;21.516;2023-07-29T07:09:36;17.30;;;14.43;;
57848;SDS011;68645;44.762;21.516;2023-07-29T07:12:03;12.68;;;9.82;;
57848;SDS011;68645;44.762;21.516;2023-07-29T07:14:30;13.52;;;9.45;;
57848;SDS011;68645;44.762;21.516;2023-07-29T07:16:56;15.57;;;11.02;;
57848;SDS011;68645;44.762;21.516;2023-07-29T07:19:22;21.60;;;18.17;;
57848;SDS011;68645;44.762;21.516;2023-07-29T07:21:48;22.00;;;15.65;;
57848;SDS011;68645;44.762;21.516;2023-07-29T07:24:14;31.45;;;16.85;;
57848;SDS011;68645;44.762;21.516;2023-07-29T07:26:40;27.75;;;15.15;;
57848;SDS011;68645;44.762;21.516;2023-07-29T07:29:07;22.75;;;13.10;;
57848;SDS011;68645;44.762;21.516;2023-07-29T07:31:33;24.58;;;13.68;;
57848;SDS011;68645;44.762;21.516;2023-07-29T07:34:00;19.10;;;12.02;;
57848;SDS011;68645;44.762;21.516;2023-07-29T07:36:28;20.73;;;11.73;;
57848;SDS011;68645;44.762;21.516;2023-07-29T07:38:57;20.95;;;10.75;;
57848;SDS011;68645;44.762;21.516;2023-07-29T07:41:23;19.85;;;11.30;;
57848;SDS011;68645;44.762;21.516;2023-07-29T07:43:49;18.75;;;10.35;;
57848;SDS011;68645;44.762;21.516;2023-07-29T07:46:15;18.90;;;11.00;;
57848;SDS011;68645;44.762;21.516;2023-07-29T07:48:41;18.10;;;11.05;;
57848;SDS011;68645;44.762;21.516;2023-07-29T07:51:11;18.48;;;10.68;;
57848;SDS011;68645;44.762;21.516;2023-07-29T07:53:37;16.80;;;8.90;;
57848;SDS011;68645;44.762;21.516;2023-07-29T07:56:03;17.50;;;9.23;;
57848;SDS011;68645;44.762;21.516;2023-07-29T07:58:29;18.27;;;14.48;;
57848;SDS011;68645;44.762;21.516;2023-07-29T08:01:02;16.95;;;11.38;;
57848;SDS011;68645;44.762;21.516;2023-07-29T08:03:29;32.08;;;26.50;;
57848;SDS011;68645;44.762;21.516;2023-07-29T08:05:55;16.63;;;12.57;;
57848;SDS011;68645;44.762;21.516;2023-07-29T08:08:21;12.70;;;10.43;;
57848;SDS011;68645;44.762;21.516;2023-07-29T08:10:47;14.45;;;9.88;;
57848;SDS011;68645;44.762;21.516;2023-07-29T08:13:14;17.80;;;12.15;;
57848;SDS011;68645;44.762;21.516;2023-07-29T08:15:40;26.88;;;16.38;;
57848;SDS011;68645;44.762;21.516;2023-07-29T08:18:06;16.17;;;11.95;;
57848;SDS011;68645;44.762;21.516;2023-07-29T08:20:32;15.15;;;10.85;;
57848;SDS011;68645;44.762;21.516;2023-07-29T08:22:58;15.85;;;11.43;;
57848;SDS011;68645;44.762;21.516;2023-07-29T08:25:25;14.40;;;11.02;;
57848;SDS011;68645;44.762;21.516;2023-07-29T08:27:51;13.95;;;9.57;;
57848;SDS011;68645;44.762;21.516;2023-07-29T08:30:17;11.07;;;8.10;;
57848;SDS011;68645;44.762;21.516;2023-07-29T08:32:44;13.82;;;8.68;;
57848;SDS011;68645;44.762;21.516;2023-07-29T08:35:10;9.98;;;7.43;;
57848;SDS011;68645;44.762;21.516;2023-07-29T08:37:36;8.43;;;4.93;;
57848;SDS011;68645;44.762;21.516;2023-07-29T08:40:02;10.40;;;7.22;;
57848;SDS011;68645;44.762;21.516;2023-07-29T08:42:28;7.55;;;5.82;;
57848;SDS011;68645;44.762;21.516;2023-07-29T08:44:55;12.98;;;5.45;;
57848;SDS011;68645;44.762;21.516;2023-07-29T08:47:22;6.50;;;5.20;;
57848;SDS011;68645;44.762;21.516;2023-07-29T08:49:48;7.45;;;5.80;;
57848;SDS011;68645;44.762;21.516;2023-07-29T08:52:16;10.40;;;4.43;;
57848;SDS011;68645;44.762;21.516;2023-07-29T08:54:43;7.50;;;5.18;;
57848;SDS011;68645;44.762;21.516;2023-07-29T09:35:55;7.97;;;4.57;;
57848;SDS011;68645;44.762;21.516;2023-07-29T09:38:25;8.93;;;5.43;;
57848;SDS011;68645;44.762;21.516;2023-07-29T09:40:54;7.28;;;4.63;;
57848;SDS011;68645;44.762;21.516;2023-07-29T09:43:20;6.28;;;3.95;;
57848;SDS011;68645;44.762;21.516;2023-07-29T09:45:51;6.93;;;4.05;;
57848;SDS011;68645;44.762;21.516;2023-07-29T09:48:19;7.13;;;4.22;;
57848;SDS011;68645;44.762;21.516;2023-07-29T09:53:14;4.78;;;3.38;;
57848;SDS011;68645;44.762;21.516;2023-07-29T09:55:40;6.55;;;4.90;;
57848;SDS011;68645;44.762;21.516;2023-07-29T09:58:11;7.38;;;5.15;;
57848;SDS011;68645;44.762;21.516;2023-07-29T10:00:38;7.55;;;4.68;;
57848;SDS011;68645;44.762;21.516;2023-07-29T10:03:05;5.70;;;3.95;;
57848;SDS011;68645;44.762;21.516;2023-07-29T10:05:32;5.85;;;4.03;;
57848;SDS011;68645;44.762;21.516;2023-07-29T10:08:00;6.47;;;4.40;;
57848;SDS011;68645;44.762;21.516;2023-07-29T10:10:27;5.03;;;3.92;;
57848;SDS011;68645;44.762;21.516;2023-07-29T10:12:54;7.70;;;4.22;;
57848;SDS011;68645;44.762;21.516;2023-07-29T10:15:20;7.47;;;3.92;;
57848;SDS011;68645;44.762;21.516;2023-07-29T10:17:47;6.25;;;4.05;;
57848;SDS011;68645;44.762;21.516;2023-07-29T10:20:13;6.40;;;4.50;;
57848;SDS011;68645;44.762;21.516;2023-07-29T10:22:40;6.05;;;4.65;;
57848;SDS011;68645;44.762;21.516;2023-07-29T10:25:16;8.43;;;4.53;;
57848;SDS011;68645;44.762;21.516;2023-07-29T10:27:52;5.60;;;4.63;;
57848;SDS011;68645;44.762;21.516;2023-07-29T10:30:19;5.85;;;4.40;;
57848;SDS011;68645;44.762;21.516;2023-07-29T10:32:46;5.82;;;4.63;;
57848;SDS011;68645;44.762;21.516;2023-07-29T10:35:12;6.28;;;4.90;;
57848;SDS011;68645;44.762;21.516;2023-07-29T10:37:38;6.97;;;5.80;;
57848;SDS011;68645;44.762;21.516;2023-07-29T10:40:06;6.22;;;4.60;;
57848;SDS011;68645;44.762;21.516;2023-07-29T10:42:32;7.40;;;4.38;;
57848;SDS011;68645;44.762;21.516;2023-07-29T10:44:58;6.85;;;4.53;;
57848;SDS011;68645;44.762;21.516;2023-07-29T10:47:25;10.18;;;4.93;;
57848;SDS011;68645;44.762;21.516;2023-07-29T10:49:56;5.82;;;4.70;;
57848;SDS011;68645;44.762;21.516;2023-07-29T10:52:43;6.50;;;4.63;;
57848;SDS011;68645;44.762;21.516;2023-07-29T10:58:04;7.80;;;5.32;;
57848;SDS011;68645;44.762;21.516;2023-07-29T11:00:31;9.20;;;6.55;;
57848;SDS011;68645;44.762;21.516;2023-07-29T11:03:16;10.32;;;8.25;;
57848;SDS011;68645;44.762;21.516;2023-07-29T11:05:46;9.07;;;5.80;;
57848;SDS011;68645;44.762;21.516;2023-07-29T11:08:28;8.05;;;6.25;;
57848;SDS011;68645;44.762;21.516;2023-07-29T11:11:02;8.85;;;5.32;;
57848;SDS011;68645;44.762;21.516;2023-07-29T11:13:31;12.27;;;9.27;;
57848;SDS011;68645;44.762;21.516;2023-07-29T11:15:58;7.00;;;5.90;;
57848;SDS011;68645;44.762;21.516;2023-07-29T11:18:28;11.00;;;9.88;;
57848;SDS011;68645;44.762;21.516;2023-07-29T11:20:54;8.20;;;5.65;;
57848;SDS011;68645;44.762;21.516;2023-07-29T11:23:26;8.65;;;6.00;;
57848;SDS011;68645;44.762;21.516;2023-07-29T11:25:53;8.32;;;5.40;;
57848;SDS011;68645;44.762;21.516;2023-07-29T11:28:19;14.50;;;6.60;;
57848;SDS011;68645;44.762;21.516;2023-07-29T11:30:47;6.45;;;4.60;;
57848;SDS011;68645;44.762;21.516;2023-07-29T11:33:13;7.25;;;5.88;;
57848;SDS011;68645;44.762;21.516;2023-07-29T11:35:39;7.63;;;4.70;;
57848;SDS011;68645;44.762;21.516;2023-07-29T11:38:05;9.40;;;6.63;;
57848;SDS011;68645;44.762;21.516;2023-07-29T11:40:31;8.20;;;6.28;;
57848;SDS011;68645;44.762;21.516;2023-07-29T11:42:57;9.10;;;7.05;;
57848;SDS011;68645;44.762;21.516;2023-07-29T11:45:23;7.43;;;5.60;;
57848;SDS011;68645;44.762;21.516;2023-07-29T11:47:49;8.40;;;6.45;;
57848;SDS011;68645;44.762;21.516;2023-07-29T11:50:16;8.30;;;6.85;;
57848;SDS011;68645;44.762;21.516;2023-07-29T11:52:43;8.00;;;5.05;;
57848;SDS011;68645;44.762;21.516;2023-07-29T11:55:09;13.73;;;8.48;;
57848;SDS011;68645;44.762;21.516;2023-07-29T11:57:36;9.20;;;7.57;;
57848;SDS011;68645;44.762;21.516;2023-07-29T12:00:03;8.95;;;6.85;;
57848;SDS011;68645;44.762;21.516;2023-07-29T12:02:31;11.85;;;9.40;;
57848;SDS011;68645;44.762;21.516;2023-07-29T12:04:58;10.43;;;7.60;;
57848;SDS011;68645;44.762;21.516;2023-07-29T12:07:24;8.18;;;4.20;;
57848;SDS011;68645;44.762;21.516;2023-07-29T12:09:50;6.30;;;4.72;;
57848;SDS011;68645;44.762;21.516;2023-07-29T12:12:17;6.38;;;4.70;;
57848;SDS011;68645;44.762;21.516;2023-07-29T12:14:45;7.40;;;5.55;;
57848;SDS011;68645;44.762;21.516;2023-07-29T12:17:11;7.55;;;3.90;;
57848;SDS011;68645;44.762;21.516;2023-07-29T12:19:38;8.60;;;5.53;;
57848;SDS011;68645;44.762;21.516;2023-07-29T12:22:09;8.75;;;6.03;;
57848;SDS011;68645;44.762;21.516;2023-07-29T12:24:38;6.18;;;3.80;;
57848;SDS011;68645;44.762;21.516;2023-07-29T12:27:04;6.30;;;3.60;;
57848;SDS011;68645;44.762;21.516;2023-07-29T12:29:30;6.00;;;4.47;;
57848;SDS011;68645;44.762;21.516;2023-07-29T12:31:58;8.90;;;5.97;;
57848;SDS011;68645;44.762;21.516;2023-07-29T12:34:25;5.88;;;3.70;;
57848;SDS011;68645;44.762;21.516;2023-07-29T12:36:53;8.23;;;4.97;;
57848;SDS011;68645;44.762;21.516;2023-07-29T12:41:50;7.47;;;4.43;;
57848;SDS011;68645;44.762;21.516;2023-07-29T12:44:16;6.68;;;4.22;;
57848;SDS011;68645;44.762;21.516;2023-07-29T12:46:43;6.78;;;4.35;;
57848;SDS011;68645;44.762;21.516;2023-07-29T12:49:09;5.10;;;3.47;;
57848;SDS011;68645;44.762;21.516;2023-07-29T12:51:35;5.22;;;4.38;;
57848;SDS011;68645;44.762;21.516;2023-07-29T12:54:02;7.43;;;4.50;;
57848;SDS011;68645;44.762;21.516;2023-07-29T12:56:29;6.03;;;4.03;;
57848;SDS011;68645;44.762;21.516;2023-07-29T12:58:56;6.10;;;4.40;;
57848;SDS011;68645;44.762;21.516;2023-07-29T13:01:25;5.80;;;4.03;;
57848;SDS011;68645;44.762;21.516;2023-07-29T13:03:52;6.78;;;4.35;;
57848;SDS011;68645;44.762;21.516;2023-07-29T13:06:18;6.18;;;5.50;;
57848;SDS011;68645;44.762;21.516;2023-07-29T13:08:44;6.90;;;4.45;;
57848;SDS011;68645;44.762;21.516;2023-07-29T13:11:11;6.50;;;4.65;;
57848;SDS011;68645;44.762;21.516;2023-07-29T13:13:37;6.03;;;4.15;;
57848;SDS011;68645;44.762;21.516;2023-07-29T13:16:03;7.78;;;5.95;;
57848;SDS011;68645;44.762;21.516;2023-07-29T13:18:30;7.25;;;4.80;;
57848;SDS011;68645;44.762;21.516;2023-07-29T13:20:57;6.18;;;4.07;;
57848;SDS011;68645;44.762;21.516;2023-07-29T13:23:23;5.75;;;4.22;;
57848;SDS011;68645;44.762;21.516;2023-07-29T13:25:50;7.65;;;4.15;;
57848;SDS011;68645;44.762;21.516;2023-07-29T13:28:16;5.53;;;3.80;;
57848;SDS011;68645;44.762;21.516;2023-07-29T13:30:44;7.15;;;4.72;;
57848;SDS011;68645;44.762;21.516;2023-07-29T13:33:10;8.35;;;4.30;;
57848;SDS011;68645;44.762;21.516;2023-07-29T13:35:36;4.97;;;3.58;;
57848;SDS011;68645;44.762;21.516;2023-07-29T13:38:02;7.32;;;3.60;;
57848;SDS011;68645;44.762;21.516;2023-07-29T13:40:29;5.32;;;3.65;;
57848;SDS011;68645;44.762;21.516;2023-07-29T13:42:55;5.43;;;3.17;;
57848;SDS011;68645;44.762;21.516;2023-07-29T13:45:21;4.40;;;3.30;;
57848;SDS011;68645;44.762;21.516;2023-07-29T13:47:51;4.97;;;3.67;;
57848;SDS011;68645;44.762;21.516;2023-07-29T13:50:17;5.00;;;3.73;;
57848;SDS011;68645;44.762;21.516;2023-07-29T13:52:43;3.92;;;3.10;;
57848;SDS011;68645;44.762;21.516;2023-07-29T13:55:09;6.50;;;3.90;;
57848;SDS011;68645;44.762;21.516;2023-07-29T13:57:36;6.57;;;3.45;;
57848;SDS011;68645;44.762;21.516;2023-07-29T14:00:04;5.45;;;4.07;;
57848;SDS011;68645;44.762;21.516;2023-07-29T14:02:30;5.65;;;3.85;;
57848;SDS011;68645;44.762;21.516;2023-07-29T14:04:56;5.60;;;3.58;;
57848;SDS011;68645;44.762;21.516;2023-07-29T14:07:22;4.93;;;3.50;;
57848;SDS011;68645;44.762;21.516;2023-07-29T14:09:49;6.00;;;3.80;;
57848;SDS011;68645;44.762;21.516;2023-07-29T14:12:16;5.55;;;3.97;;
57848;SDS011;68645;44.762;21.516;2023-07-29T14:14:42;5.70;;;4.18;;
57848;SDS011;68645;44.762;21.516;2023-07-29T14:17:08;6.75;;;3.90;;
57848;SDS011;68645;44.762;21.516;2023-07-29T14:19:35;4.38;;;2.97;;
57848;SDS011;68645;44.762;21.516;2023-07-29T14:22:01;5.95;;;3.55;;
57848;SDS011;68645;44.762;21.516;2023-07-29T14:24:27;6.65;;;3.90;;
57848;SDS011;68645;44.762;21.516;2023-07-29T14:26:53;5.35;;;3.45;;
57848;SDS011;68645;44.762;21.516;2023-07-29T14:29:19;4.72;;;3.05;;
57848;SDS011;68645;44.762;21.516;2023-07-29T14:31:45;5.97;;;3.25;;
57848;SDS011;68645;44.762;21.516;2023-07-29T14:34:12;4.13;;;3.25;;
57848;SDS011;68645;44.762;21.516;2023-07-29T14:36:38;6.22;;;3.40;;
57848;SDS011;68645;44.762;21.516;2023-07-29T14:39:04;7.28;;;3.50;;
57848;SDS011;68645;44.762;21.516;2023-07-29T14:41:30;4.60;;;3.38;;
57848;SDS011;68645;44.762;21.516;2023-07-29T14:43:56;4.93;;;3.22;;
57848;SDS011;68645;44.762;21.516;2023-07-29T14:46:22;5.55;;;3.50;;
57848;SDS011;68645;44.762;21.516;2023-07-29T14:48:48;7.20;;;3.40;;
57848;SDS011;68645;44.762;21.516;2023-07-29T14:51:18;6.40;;;3.53;;
57848;SDS011;68645;44.762;21.516;2023-07-29T14:53:44;5.95;;;3.63;;
57848;SDS011;68645;44.762;21.516;2023-07-29T14:56:10;5.93;;;3.50;;
57848;SDS011;68645;44.762;21.516;2023-07-29T14:58:38;9.15;;;3.78;;
57848;SDS011;68645;44.762;21.516;2023-07-29T15:01:04;4.50;;;3.53;;
57848;SDS011;68645;44.762;21.516;2023-07-29T15:03:31;6.35;;;3.58;;
57848;SDS011;68645;44.762;21.516;2023-07-29T15:05:57;5.75;;;3.20;;
57848;SDS011;68645;44.762;21.516;2023-07-29T15:08:24;4.82;;;3.60;;
57848;SDS011;68645;44.762;21.516;2023-07-29T15:10:50;5.38;;;3.42;;
57848;SDS011;68645;44.762;21.516;2023-07-29T15:13:17;5.20;;;3.55;;